Maple River, Iowa
Current Conditions -  °F | °C
As of 9:55 PM on Saturday 24 Jan 2015 (Local Time) from KCIN Reporting Station
Overcast Overcast  
Wind Chill: 41°   Ceiling: 4400
Heat Index: 41°   Visibility: 10mi
Dew Point: 36°   Wind: 0mph
Humidity: 81%   Direction: NA
Pressure: 29.55"   Gusts: NA
Location:  42.08°N, 94.8598°W
Report Text: KCIN 250355Z AUTO 00000KT 10SM OVC044 05/02 A2955 RMK AO2
Loading
Personal Weather Stations






























Interactive Weather Map New forecast layout! Learn more

10-Day Weather Forecast

Advertisements
Track Severe Weather on mobile